Time;durP1;ratioP1;P1;durP2;ratioP2;P2;SDS_P1;SDS_P2;PMS_P1;PMS_P2;Temp;Humidity;BMP_temperature;BMP_pressure;BME280_temperature;BME280_humidity;BME280_pressure;Samples;Min_cycle;Max_cycle;Signal;HPM_P1;HPM_P2
2024/03/14 00:02:16;;;;;;;10.00;9.00;;;;;;;;;;5055840;28;20086;-59
2024/03/14 00:04:42;;;;;;;9.77;8.88;;;;;;;;;;5055388;28;20029;-59
2024/03/14 00:07:09;;;;;;;9.88;7.72;;;;;;;;;;5055591;28;20029;-58
2024/03/14 00:09:34;;;;;;;8.10;7.30;;;;;;;;;;5056046;28;20097;-59
2024/03/14 00:12:00;;;;;;;8.15;6.88;;;;;;;;;;5055206;28;20048;-59
2024/03/14 00:14:26;;;;;;;10.77;8.38;;;;;;;;;;5055392;28;20418;-58
2024/03/14 00:16:52;;;;;;;9.27;7.80;;;;;;;;;;5055718;28;20017;-59
2024/03/14 00:19:21;;;;;;;8.52;7.00;;;;;;;;;;5056142;28;20036;-58
2024/03/14 00:21:48;;;;;;;9.02;7.35;;;;;;;;;;5055277;28;20029;-59
2024/03/14 00:24:16;;;;;;;6.93;6.20;;;;;;;;;;5055291;28;20020;-59
2024/03/14 00:26:42;;;;;;;7.95;7.05;;;;;;;;;;5055441;28;20107;-58
2024/03/14 00:29:09;;;;;;;7.57;6.78;;;;;;;;;;5055748;28;20431;-59
2024/03/14 00:31:38;;;;;;;7.22;6.50;;;;;;;;;;5054659;28;20035;-59
2024/03/14 00:34:07;;;;;;;7.70;6.73;;;;;;;;;;5055883;28;20029;-60
2024/03/14 00:36:33;;;;;;;7.72;6.28;;;;;;;;;;5054983;28;20055;-59
2024/03/14 00:38:58;;;;;;;8.35;7.05;;;;;;;;;;5055329;28;20037;-59
2024/03/14 00:41:24;;;;;;;9.35;7.68;;;;;;;;;;5055219;28;20107;-59
2024/03/14 00:43:50;;;;;;;8.73;7.60;;;;;;;;;;5054745;28;20421;-59
2024/03/14 00:46:17;;;;;;;8.75;7.85;;;;;;;;;;5055298;28;20411;-59
2024/03/14 00:48:43;;;;;;;8.43;7.53;;;;;;;;;;5055410;28;20052;-59
2024/03/14 00:51:10;;;;;;;9.13;8.23;;;;;;;;;;5053606;28;20021;-59
2024/03/14 00:53:36;;;;;;;9.00;7.93;;;;;;;;;;5054613;28;20037;-59
2024/03/14 00:56:02;;;;;;;7.85;7.05;;;;;;;;;;5054244;28;20498;-59
2024/03/14 00:58:28;;;;;;;10.32;7.78;;;;;;;;;;5055136;28;20029;-60
2024/03/14 01:00:54;;;;;;;9.52;7.60;;;;;;;;;;5054786;28;20021;-59
2024/03/14 01:03:20;;;;;;;8.82;7.90;;;;;;;;;;5054911;28;20478;-59
2024/03/14 01:05:46;;;;;;;9.55;7.80;;;;;;;;;;5054188;28;20021;-59
2024/03/14 01:08:12;;;;;;;8.30;7.50;;;;;;;;;;5054704;28;20426;-60
2024/03/14 01:10:38;;;;;;;8.00;7.13;;;;;;;;;;5054844;28;20029;-60
2024/03/14 01:13:07;;;;;;;9.93;7.55;;;;;;;;;;5054306;28;20388;-59
2024/03/14 01:15:33;;;;;;;8.02;7.28;;;;;;;;;;5054208;28;20029;-59
2024/03/14 01:17:59;;;;;;;9.50;8.60;;;;;;;;;;5054776;28;20036;-59
2024/03/14 01:20:25;;;;;;;7.70;6.95;;;;;;;;;;5054169;28;20021;-59
2024/03/14 01:22:51;;;;;;;9.23;8.18;;;;;;;;;;5053879;28;20091;-59
2024/03/14 01:25:18;;;;;;;8.80;7.50;;;;;;;;;;5054082;28;20035;-59
2024/03/14 01:27:45;;;;;;;8.95;7.82;;;;;;;;;;5054818;28;20414;-59
2024/03/14 01:30:12;;;;;;;9.20;8.30;;;;;;;;;;5054069;28;20471;-59
2024/03/14 01:32:38;;;;;;;8.02;7.22;;;;;;;;;;5053818;28;20049;-59
2024/03/14 01:35:05;;;;;;;8.10;7.30;;;;;;;;;;5054019;28;20017;-58
2024/03/14 01:37:31;;;;;;;10.82;6.60;;;;;;;;;;5053909;28;20024;-58
2024/03/14 01:39:57;;;;;;;8.90;8.00;;;;;;;;;;5053950;28;20033;-57
2024/03/14 01:42:23;;;;;;;10.40;7.85;;;;;;;;;;5054371;28;20040;-57
2024/03/14 01:44:57;;;;;;;8.20;7.38;;;;;;;;;;5053852;28;20477;-58
2024/03/14 01:47:24;;;;;;;8.55;7.72;;;;;;;;;;5053553;28;20032;-58
2024/03/14 01:49:50;;;;;;;6.85;6.25;;;;;;;;;;5054061;28;20029;-58
2024/03/14 01:52:16;;;;;;;9.75;8.07;;;;;;;;;;5053898;28;20040;-58
2024/03/14 01:54:42;;;;;;;10.05;7.95;;;;;;;;;;5054026;28;20036;-58
2024/03/14 01:57:09;;;;;;;11.48;8.80;;;;;;;;;;5053648;28;20049;-58
2024/03/14 01:59:36;;;;;;;8.48;7.63;;;;;;;;;;5054522;28;20027;-58
2024/03/14 02:02:02;;;;;;;9.13;8.13;;;;;;;;;;5053694;28;20086;-58
2024/03/14 02:04:34;;;;;;;8.98;7.60;;;;;;;;;;5053598;28;20029;-58
2024/03/14 02:07:04;;;;;;;8.70;7.88;;;;;;;;;;5054268;28;20082;-58
2024/03/14 02:09:30;;;;;;;;;;;;;;;;;;5054046;28;20029;-58
2024/03/14 02:11:57;;;;;;;9.40;7.53;;;;;;;;;;5053431;28;19920;-58
2024/03/14 02:14:23;;;;;;;7.72;6.80;;;;;;;;;;5053423;28;20483;-58
2024/03/14 02:16:49;;;;;;;7.85;7.05;;;;;;;;;;5053432;28;20072;-58
2024/03/14 02:19:16;;;;;;;9.52;7.22;;;;;;;;;;5053647;28;20532;-57
2024/03/14 02:21:42;;;;;;;8.45;7.55;;;;;;;;;;5053381;28;20033;-58
2024/03/14 02:24:08;;;;;;;12.02;8.52;;;;;;;;;;5053460;28;20405;-58
2024/03/14 02:26:40;;;;;;;9.57;8.10;;;;;;;;;;5054181;28;20557;-58
2024/03/14 02:29:07;;;;;;;7.95;7.15;;;;;;;;;;5053959;28;20102;-57
2024/03/14 02:31:33;;;;;;;7.32;6.50;;;;;;;;;;5053124;28;20128;-58
2024/03/14 02:33:59;;;;;;;8.88;6.78;;;;;;;;;;5053210;28;20363;-58
2024/03/14 02:36:25;;;;;;;7.70;6.30;;;;;;;;;;5053028;28;20025;-58
2024/03/14 02:38:54;;;;;;;6.43;5.80;;;;;;;;;;5053561;28;20028;-58
2024/03/14 02:41:20;;;;;;;7.13;5.95;;;;;;;;;;5053689;28;20023;-58
2024/03/14 02:43:46;;;;;;;7.10;6.32;;;;;;;;;;5052892;28;20033;-58
2024/03/14 02:46:13;;;;;;;7.72;6.43;;;;;;;;;;5053124;28;20029;-58
2024/03/14 02:48:39;;;;;;;6.53;5.50;;;;;;;;;;5053243;28;20025;-58
2024/03/14 02:51:05;;;;;;;7.75;5.47;;;;;;;;;;5053390;28;20079;-58
2024/03/14 02:53:31;;;;;;;5.30;4.72;;;;;;;;;;5053058;28;20029;-58
2024/03/14 02:55:57;;;;;;;6.10;5.35;;;;;;;;;;5053062;28;20064;-58
2024/03/14 02:58:23;;;;;;;6.13;5.45;;;;;;;;;;5053094;28;20074;-58
2024/03/14 03:00:49;;;;;;;5.65;4.68;;;;;;;;;;5053302;28;20032;-58
2024/03/14 03:03:15;;;;;;;7.97;4.45;;;;;;;;;;5053320;28;20532;-58
2024/03/14 03:05:41;;;;;;;5.53;4.53;;;;;;;;;;5052927;28;20029;-58
2024/03/14 03:08:07;;;;;;;6.88;4.93;;;;;;;;;;5053515;28;20367;-58
2024/03/14 03:10:33;;;;;;;5.75;5.15;;;;;;;;;;5052635;28;20024;-58
2024/03/14 03:12:59;;;;;;;5.25;4.25;;;;;;;;;;5052886;28;20116;-58
2024/03/14 03:15:25;;;;;;;5.93;4.40;;;;;;;;;;5055401;28;20029;-58
2024/03/14 03:17:52;;;;;;;5.50;4.50;;;;;;;;;;5056464;28;20029;-58
2024/03/14 03:20:18;;;;;;;5.32;4.82;;;;;;;;;;5057327;28;20025;-58
2024/03/14 03:23:06;;;;;;;6.13;5.53;;;;;;;;;;5056553;28;20467;-58
2024/03/14 03:25:33;;;;;;;5.38;4.85;;;;;;;;;;5056903;28;20025;-57
2024/03/14 03:28:14;;;;;;;10.18;6.05;;;;;;;;;;5056852;28;20033;-57
2024/03/14 03:30:40;;;;;;;7.03;5.93;;;;;;;;;;5055952;28;20037;-57
2024/03/14 03:33:11;;;;;;;5.38;4.70;;;;;;;;;;5056470;28;20048;-57
2024/03/14 03:35:37;;;;;;;7.85;5.35;;;;;;;;;;5056235;28;20025;-57
2024/03/14 03:38:06;;;;;;;6.15;4.90;;;;;;;;;;5055858;28;20028;-57
2024/03/14 03:40:35;;;;;;;7.15;5.68;;;;;;;;;;5056064;28;20120;-58
2024/03/14 03:43:02;;;;;;;6.47;5.88;;;;;;;;;;5055802;28;20528;-57
2024/03/14 03:45:29;;;;;;;6.07;5.55;;;;;;;;;;5056058;28;20025;-57
2024/03/14 03:47:55;;;;;;;6.47;4.90;;;;;;;;;;5055929;28;20087;-57
2024/03/14 03:50:23;;;;;;;6.10;5.50;;;;;;;;;;5056288;28;20025;-58
2024/03/14 03:52:49;;;;;;;6.32;5.65;;;;;;;;;;5055768;28;20032;-57
2024/03/14 03:55:18;;;;;;;7.50;5.63;;;;;;;;;;5056648;28;20355;-57
2024/03/14 03:57:44;;;;;;;8.35;5.82;;;;;;;;;;5056442;28;20084;-56
2024/03/14 04:02:56;;;;;;;7.72;6.90;;;;;;;;;;5055516;28;20115;-57
2024/03/14 04:05:25;;;;;;;9.80;6.75;;;;;;;;;;5055601;28;20029;-57
2024/03/14 04:07:51;;;;;;;6.47;5.85;;;;;;;;;;5055773;28;20021;-57
2024/03/14 04:10:17;;;;;;;8.82;6.43;;;;;;;;;;5055909;28;20031;-58
2024/03/14 04:12:44;;;;;;;6.90;5.82;;;;;;;;;;5055629;28;20057;-58
2024/03/14 04:15:10;;;;;;;6.25;5.57;;;;;;;;;;5055513;28;20383;-58
2024/03/14 04:17:36;;;;;;;8.93;5.93;;;;;;;;;;5055361;28;20451;-58
2024/03/14 04:20:10;;;;;;;6.78;5.47;;;;;;;;;;5055926;28;20430;-58
2024/03/14 04:22:37;;;;;;;6.95;5.93;;;;;;;;;;5055583;28;20367;-58
2024/03/14 04:25:10;;;;;;;6.88;5.28;;;;;;;;;;5055468;28;20451;-58
2024/03/14 04:27:36;;;;;;;11.52;6.05;;;;;;;;;;5055799;28;20107;-57
2024/03/14 04:30:03;;;;;;;6.65;5.68;;;;;;;;;;5055258;28;20525;-58
2024/03/14 04:32:29;;;;;;;6.93;5.88;;;;;;;;;;5054920;28;20041;-58
2024/03/14 04:34:55;;;;;;;7.43;6.68;;;;;;;;;;5055057;28;20500;-57
2024/03/14 04:37:20;;;;;;;7.93;6.28;;;;;;;;;;5055069;28;20418;-58
2024/03/14 04:39:47;;;;;;;7.95;6.80;;;;;;;;;;5055371;28;20452;-58
2024/03/14 04:42:13;;;;;;;8.02;6.78;;;;;;;;;;5054801;28;20075;-57
2024/03/14 04:44:39;;;;;;;8.32;6.45;;;;;;;;;;5055218;28;20442;-58
2024/03/14 04:47:10;;;;;;;8.73;6.40;;;;;;;;;;5055305;28;20033;-58
2024/03/14 04:49:36;;;;;;;9.65;6.78;;;;;;;;;;5055389;28;20083;-57
2024/03/14 04:52:02;;;;;;;7.82;6.47;;;;;;;;;;5054605;28;20037;-58
2024/03/14 04:54:28;;;;;;;8.05;6.43;;;;;;;;;;5054362;28;20075;-58
2024/03/14 04:56:54;;;;;;;7.93;6.60;;;;;;;;;;5054864;28;20041;-58
2024/03/14 04:59:22;;;;;;;7.85;6.15;;;;;;;;;;5055150;28;20033;-58
2024/03/14 05:01:48;;;;;;;7.68;6.38;;;;;;;;;;5054517;28;20041;-58
2024/03/14 05:04:14;;;;;;;7.38;6.07;;;;;;;;;;5055078;28;20024;-57
2024/03/14 05:06:45;;;;;;;8.00;6.85;;;;;;;;;;5055064;28;20547;-57
2024/03/14 05:09:11;;;;;;;8.88;6.97;;;;;;;;;;5055042;28;20067;-58
2024/03/14 05:11:37;;;;;;;9.18;7.93;;;;;;;;;;5054823;28;20025;-58
2024/03/14 05:14:06;;;;;;;17.77;8.07;;;;;;;;;;5054641;28;20021;-57
2024/03/14 05:16:33;;;;;;;21.02;7.53;;;;;;;;;;5054297;28;20114;-57
2024/03/14 05:18:58;;;;;;;23.00;9.32;;;;;;;;;;5054301;28;20458;-58
2024/03/14 05:21:24;;;;;;;26.75;9.25;;;;;;;;;;5054621;28;20036;-58
2024/03/14 05:23:50;;;;;;;28.13;10.80;;;;;;;;;;5054166;28;20508;-58
2024/03/14 05:26:18;;;;;;;57.47;11.43;;;;;;;;;;5054277;28;20029;-57
2024/03/14 05:28:44;;;;;;;19.67;9.82;;;;;;;;;;5054724;28;20433;-58
2024/03/14 05:31:10;;;;;;;20.92;7.90;;;;;;;;;;5054649;28;20025;-57
2024/03/14 05:33:36;;;;;;;9.65;8.23;;;;;;;;;;5054003;28;20059;-57
2024/03/14 05:36:03;;;;;;;12.68;9.77;;;;;;;;;;5054596;28;20029;-58
2024/03/14 05:38:28;;;;;;;10.80;8.40;;;;;;;;;;5054030;28;20057;-57
2024/03/14 05:40:54;;;;;;;12.95;9.75;;;;;;;;;;5053973;28;20081;-57
2024/03/14 05:43:20;;;;;;;11.18;9.48;;;;;;;;;;5054449;28;20053;-57
2024/03/14 05:45:46;;;;;;;10.50;9.38;;;;;;;;;;5053921;28;20061;-58
2024/03/14 05:48:12;;;;;;;11.63;9.30;;;;;;;;;;5054107;28;20025;-57
2024/03/14 05:50:38;;;;;;;13.07;10.23;;;;;;;;;;5053758;28;20112;-57
2024/03/14 05:53:05;;;;;;;10.40;9.30;;;;;;;;;;5053578;28;20029;-57
2024/03/14 05:55:31;;;;;;;13.30;9.80;;;;;;;;;;5054003;28;20409;-57
2024/03/14 05:57:57;;;;;;;22.10;10.32;;;;;;;;;;5054197;28;20021;-57
2024/03/14 06:00:24;;;;;;;13.65;10.48;;;;;;;;;;5053464;28;20021;-58
2024/03/14 06:02:50;;;;;;;14.00;12.10;;;;;;;;;;5053990;28;20056;-57
2024/03/14 06:05:16;;;;;;;17.95;11.40;;;;;;;;;;5053496;28;20029;-58
2024/03/14 06:07:42;;;;;;;25.92;13.27;;;;;;;;;;5053591;28;20027;-57
2024/03/14 06:10:12;;;;;;;18.65;12.75;;;;;;;;;;5054157;28;20112;-58
2024/03/14 06:12:38;;;;;;;15.70;11.77;;;;;;;;;;5053677;28;20048;-58
2024/03/14 06:15:08;;;;;;;18.15;11.68;;;;;;;;;;5053820;28;20025;-57
2024/03/14 06:17:35;;;;;;;20.05;12.30;;;;;;;;;;5053688;28;20029;-58
2024/03/14 06:20:00;;;;;;;16.25;12.55;;;;;;;;;;5053681;28;20056;-57
2024/03/14 06:22:26;;;;;;;15.02;11.15;;;;;;;;;;5053427;28;20047;-57
2024/03/14 06:24:52;;;;;;;17.02;12.63;;;;;;;;;;5053386;28;20017;-58
2024/03/14 06:27:18;;;;;;;25.30;13.80;;;;;;;;;;5053207;28;20051;-58
2024/03/14 06:29:45;;;;;;;16.88;13.50;;;;;;;;;;5053680;28;20028;-57
2024/03/14 06:32:11;;;;;;;19.88;13.35;;;;;;;;;;5053683;28;20059;-58
2024/03/14 06:34:37;;;;;;;19.08;13.73;;;;;;;;;;5053895;28;20491;-58
2024/03/14 06:37:04;;;;;;;14.23;11.80;;;;;;;;;;5053254;28;20043;-58
2024/03/14 06:39:30;;;;;;;19.13;14.10;;;;;;;;;;5054089;28;20029;-55
2024/03/14 06:41:56;;;;;;;17.25;12.25;;;;;;;;;;5053006;28;20032;-58
2024/03/14 06:44:22;;;;;;;17.15;12.98;;;;;;;;;;5053785;28;20032;-58
2024/03/14 06:46:48;;;;;;;21.60;13.43;;;;;;;;;;5054130;28;20033;-57
2024/03/14 06:49:14;;;;;;;16.80;12.52;;;;;;;;;;5054452;28;20111;-58
2024/03/14 06:51:43;;;;;;;17.77;12.52;;;;;;;;;;5057574;28;20362;-58
2024/03/14 06:54:12;;;;;;;15.88;12.30;;;;;;;;;;5057048;28;20043;-59
2024/03/14 06:56:38;;;;;;;18.60;13.50;;;;;;;;;;5056645;28;20430;-58
2024/03/14 06:59:08;;;;;;;16.58;12.32;;;;;;;;;;5056662;28;20029;-58
2024/03/14 07:01:34;;;;;;;17.00;14.00;;;;;;;;;;5056748;28;20052;-59
2024/03/14 07:04:01;;;;;;;15.18;13.50;;;;;;;;;;5056855;28;20048;-59
2024/03/14 07:06:28;;;;;;;24.08;13.82;;;;;;;;;;5056819;28;20021;-59
2024/03/14 07:08:57;;;;;;;17.63;12.32;;;;;;;;;;5057435;28;20394;-59
2024/03/14 07:11:26;;;;;;;16.02;12.25;;;;;;;;;;5056555;28;20475;-57
2024/03/14 07:14:00;;;;;;;16.63;11.10;;;;;;;;;;5056707;28;20067;-57
2024/03/14 07:16:26;;;;;;;16.00;11.98;;;;;;;;;;5056619;28;20339;-58
2024/03/14 07:18:54;;;;;;;16.15;12.48;;;;;;;;;;5057139;28;20351;-56
2024/03/14 07:21:22;;;;;;;15.80;11.30;;;;;;;;;;5057086;28;20039;-57
2024/03/14 07:23:48;;;;;;;15.07;11.40;;;;;;;;;;5056832;28;20067;-57
2024/03/14 07:26:22;;;;;;;15.57;12.68;;;;;;;;;;5056502;28;20116;-58
2024/03/14 07:28:50;;;;;;;14.75;10.30;;;;;;;;;;5056697;28;20033;-56
2024/03/14 07:31:16;;;;;;;14.15;11.68;;;;;;;;;;5056394;28;20052;-57
2024/03/14 07:33:43;;;;;;;15.55;11.70;;;;;;;;;;5056331;28;20033;-57
2024/03/14 07:36:15;;;;;;;15.40;11.15;;;;;;;;;;5056978;28;20064;-59
2024/03/14 07:38:41;;;;;;;16.13;12.15;;;;;;;;;;5056892;28;20032;-58
2024/03/14 07:41:07;;;;;;;15.02;10.13;;;;;;;;;;5056031;28;20364;-58
2024/03/14 07:43:34;;;;;;;14.43;11.73;;;;;;;;;;5056193;28;20029;-57
2024/03/14 07:46:00;;;;;;;13.13;10.43;;;;;;;;;;5056081;28;20032;-58
2024/03/14 07:48:27;;;;;;;12.90;10.52;;;;;;;;;;5056645;28;20528;-57
2024/03/14 07:50:53;;;;;;;15.10;10.48;;;;;;;;;;5055989;28;20033;-57
2024/03/14 07:53:20;;;;;;;11.88;10.20;;;;;;;;;;5056088;28;20044;-58
2024/03/14 07:55:46;;;;;;;12.52;9.82;;;;;;;;;;5056569;28;20155;-56
2024/03/14 07:58:12;;;;;;;14.63;10.40;;;;;;;;;;5056218;28;20068;-58
2024/03/14 08:00:38;;;;;;;12.15;9.65;;;;;;;;;;5055775;28;20044;-58
2024/03/14 08:03:04;;;;;;;15.50;10.88;;;;;;;;;;5055626;28;20033;-58
2024/03/14 08:05:31;;;;;;;12.25;9.55;;;;;;;;;;5055681;28;20510;-57
2024/03/14 08:07:59;;;;;;;10.20;9.18;;;;;;;;;;5056266;28;20414;-58
2024/03/14 08:10:26;;;;;;;10.57;9.05;;;;;;;;;;5056425;28;20029;-58
2024/03/14 08:12:52;;;;;;;10.27;8.60;;;;;;;;;;5055572;28;20048;-58
2024/03/14 08:15:18;;;;;;;10.02;7.65;;;;;;;;;;5055535;28;20463;-57
2024/03/14 08:17:45;;;;;;;9.88;8.38;;;;;;;;;;5055411;28;20087;-57
2024/03/14 08:20:15;;;;;;;11.50;8.45;;;;;;;;;;5056299;28;20025;-58
2024/03/14 08:22:42;;;;;;;9.77;8.02;;;;;;;;;;5055446;28;20064;-58
2024/03/14 08:25:17;;;;;;;10.07;7.57;;;;;;;;;;5055918;28;20036;-58
2024/03/14 08:27:43;;;;;;;8.23;7.32;;;;;;;;;;5055953;28;20028;-57
2024/03/14 08:30:11;;;;;;;9.20;6.97;;;;;;;;;;5055878;28;20459;-58
2024/03/14 08:32:37;;;;;;;8.70;7.22;;;;;;;;;;5055456;28;20440;-56
2024/03/14 08:35:05;;;;;;;9.55;7.68;;;;;;;;;;5055778;28;20033;-57
2024/03/14 08:37:31;;;;;;;10.68;6.82;;;;;;;;;;5055356;28;20025;-57
2024/03/14 08:39:58;;;;;;;7.43;6.13;;;;;;;;;;5055431;28;20116;-57
2024/03/14 08:42:31;;;;;;;7.53;5.82;;;;;;;;;;5055039;28;20458;-57
2024/03/14 08:44:58;;;;;;;8.90;7.00;;;;;;;;;;5055844;28;20025;-56
2024/03/14 08:47:24;;;;;;;9.23;5.82;;;;;;;;;;5055531;28;20025;-57
2024/03/14 08:49:50;;;;;;;7.57;6.15;;;;;;;;;;5055448;28;20021;-56
2024/03/14 08:52:16;;;;;;;6.57;5.65;;;;;;;;;;5054922;28;20115;-57
2024/03/14 08:54:45;;;;;;;9.20;6.80;;;;;;;;;;5054802;28;20060;-57
2024/03/14 08:57:12;;;;;;;7.63;5.75;;;;;;;;;;5054944;28;20049;-57
2024/03/14 08:59:39;;;;;;;6.90;4.80;;;;;;;;;;5055340;28;20037;-57
2024/03/14 09:02:09;;;;;;;8.13;5.95;;;;;;;;;;5054717;28;20079;-58
2024/03/14 09:04:35;;;;;;;7.65;5.57;;;;;;;;;;5054933;28;20049;-57
2024/03/14 09:07:01;;;;;;;6.15;5.55;;;;;;;;;;5055104;28;20509;-57
2024/03/14 09:09:34;;;;;;;6.53;5.40;;;;;;;;;;5055158;28;20040;-58
2024/03/14 09:12:09;;;;;;;6.55;5.03;;;;;;;;;;5054432;28;20075;-57
2024/03/14 09:14:35;;;;;;;5.80;4.45;;;;;;;;;;5054946;28;20359;-56
2024/03/14 09:17:04;;;;;;;4.90;3.78;;;;;;;;;;5054450;28;20025;-57
2024/03/14 09:19:31;;;;;;;5.32;4.07;;;;;;;;;;5055250;28;20056;-58
2024/03/14 09:21:57;;;;;;;5.32;4.00;;;;;;;;;;5054579;28;20033;-57
2024/03/14 09:24:23;;;;;;;4.78;3.65;;;;;;;;;;5054351;28;20482;-57
2024/03/14 09:26:49;;;;;;;4.28;3.20;;;;;;;;;;5054404;28;20093;-57
2024/03/14 09:29:15;;;;;;;4.25;3.85;;;;;;;;;;5054804;28;20021;-57
2024/03/14 09:31:44;;;;;;;4.65;3.33;;;;;;;;;;5053973;28;20025;-57
2024/03/14 09:34:11;;;;;;;5.00;3.47;;;;;;;;;;5053640;28;20106;-56
2024/03/14 09:36:37;;;;;;;6.20;4.60;;;;;;;;;;5054501;28;20458;-57
2024/03/14 09:39:13;;;;;;;4.30;3.15;;;;;;;;;;5054445;28;20021;-55
2024/03/14 09:41:39;;;;;;;4.30;3.03;;;;;;;;;;5054606;28;20082;-58
2024/03/14 09:44:05;;;;;;;5.35;4.22;;;;;;;;;;5054260;28;20052;-58
2024/03/14 09:46:34;;;;;;;4.60;3.05;;;;;;;;;;5054229;28;20021;-59
2024/03/14 09:49:01;;;;;;;3.45;2.42;;;;;;;;;;5054083;28;20053;-58
2024/03/14 09:51:27;;;;;;;3.65;2.70;;;;;;;;;;5054393;28;20032;-58
2024/03/14 09:53:54;;;;;;;4.18;2.50;;;;;;;;;;5053719;28;20033;-58
2024/03/14 09:56:21;;;;;;;3.63;2.55;;;;;;;;;;5053516;28;20080;-58
2024/03/14 09:58:47;;;;;;;4.57;2.70;;;;;;;;;;5053695;28;20127;-58
2024/03/14 10:01:13;;;;;;;4.18;2.33;;;;;;;;;;5053729;28;20055;-58
2024/03/14 10:03:39;;;;;;;3.33;2.63;;;;;;;;;;5054192;28;20051;-59
2024/03/14 10:06:15;;;;;;;3.88;2.53;;;;;;;;;;5054224;28;20447;-59
2024/03/14 10:08:51;;;;;;;3.47;2.65;;;;;;;;;;5053673;28;20463;-58
2024/03/14 10:11:18;;;;;;;4.13;2.85;;;;;;;;;;5053551;28;20031;-58
2024/03/14 10:13:46;;;;;;;4.38;2.65;;;;;;;;;;5053452;28;20037;-59
2024/03/14 10:16:13;;;;;;;4.22;2.72;;;;;;;;;;5053487;28;20029;-58
2024/03/14 10:18:39;;;;;;;4.05;2.92;;;;;;;;;;5054440;28;20132;-58
2024/03/14 10:21:05;;;;;;;5.15;3.53;;;;;;;;;;5053550;28;20052;-59
2024/03/14 10:23:34;;;;;;;3.97;2.90;;;;;;;;;;5054938;28;20040;-59
2024/03/14 10:26:00;;;;;;;3.88;2.50;;;;;;;;;;5057600;28;20025;-58
2024/03/14 10:28:31;;;;;;;3.67;2.67;;;;;;;;;;5057670;28;20039;-58
2024/03/14 10:31:01;;;;;;;5.45;3.17;;;;;;;;;;5057578;28;20460;-59
2024/03/14 10:33:27;;;;;;;4.22;2.72;;;;;;;;;;5057941;28;20041;-59
2024/03/14 10:35:57;;;;;;;2.85;2.30;;;;;;;;;;5057517;28;20025;-56
2024/03/14 10:38:25;;;;;;;3.05;2.25;;;;;;;;;;5058005;28;20496;-56
2024/03/14 10:40:52;;;;;;;4.88;2.92;;;;;;;;;;5057357;28;20029;-56
2024/03/14 10:43:19;;;;;;;2.45;1.67;;;;;;;;;;5057052;28;20375;-58
2024/03/14 10:45:52;;;;;;;2.92;2.00;;;;;;;;;;5057229;28;20025;-58
2024/03/14 10:48:18;;;;;;;2.40;1.60;;;;;;;;;;5058120;28;20044;-57
2024/03/14 10:50:45;;;;;;;3.25;2.22;;;;;;;;;;5057170;28;20025;-57
2024/03/14 10:53:12;;;;;;;2.85;1.73;;;;;;;;;;5057581;28;20064;-57
2024/03/14 10:55:40;;;;;;;2.38;1.90;;;;;;;;;;5056806;28;20021;-57
2024/03/14 10:58:06;;;;;;;3.78;2.10;;;;;;;;;;5057639;28;20429;-57
2024/03/14 11:00:33;;;;;;;4.13;1.90;;;;;;;;;;5057258;28;20031;-58
2024/03/14 11:03:00;;;;;;;2.67;1.95;;;;;;;;;;5057164;28;20025;-57
2024/03/14 11:05:26;;;;;;;3.10;2.00;;;;;;;;;;5057518;28;20048;-57
2024/03/14 11:07:54;;;;;;;2.50;1.55;;;;;;;;;;5056897;28;20056;-57
2024/03/14 11:10:31;;;;;;;2.95;1.80;;;;;;;;;;5057132;28;20371;-57
2024/03/14 11:12:57;;;;;;;2.03;1.13;;;;;;;;;;5057248;28;20033;-58
2024/03/14 11:15:24;;;;;;;4.60;1.45;;;;;;;;;;5056680;28;20103;-55
2024/03/14 11:17:51;;;;;;;2.83;1.33;;;;;;;;;;5057045;28;20025;-57
2024/03/14 11:20:25;;;;;;;2.08;1.40;;;;;;;;;;5056984;28;20025;-57
2024/03/14 11:22:53;;;;;;;2.70;1.45;;;;;;;;;;5056414;28;20486;-57
2024/03/14 11:25:22;;;;;;;2.50;1.52;;;;;;;;;;5056717;28;20031;-57
2024/03/14 11:27:49;;;;;;;2.05;1.33;;;;;;;;;;5056539;28;20401;-57
2024/03/14 11:30:21;;;;;;;2.22;1.52;;;;;;;;;;5056396;28;20033;-58
2024/03/14 11:32:49;;;;;;;3.03;1.45;;;;;;;;;;5056542;28;20043;-58
2024/03/14 11:35:37;;;;;;;2.13;1.38;;;;;;;;;;5056191;28;20028;-58
2024/03/14 11:38:23;;;;;;;1.67;1.08;;;;;;;;;;5056291;28;20042;-59
2024/03/14 11:40:52;;;;;;;2.08;1.17;;;;;;;;;;5056248;28;20064;-58
2024/03/14 11:43:26;;;;;;;2.63;1.55;;;;;;;;;;5056181;28;20033;-59
2024/03/14 11:46:02;;;;;;;2.25;1.10;;;;;;;;;;5056788;28;20029;-59
2024/03/14 11:48:28;;;;;;;1.77;0.88;;;;;;;;;;5056427;28;20021;-58
2024/03/14 11:50:56;;;;;;;2.63;1.17;;;;;;;;;;5056101;28;20021;-58
2024/03/14 11:53:22;;;;;;;1.23;0.70;;;;;;;;;;5055672;28;20459;-56
2024/03/14 11:55:48;;;;;;;1.42;0.73;;;;;;;;;;5055415;28;20085;-58
2024/03/14 11:58:18;;;;;;;1.20;0.57;;;;;;;;;;5055837;28;20025;-58
2024/03/14 12:00:53;;;;;;;2.05;0.80;;;;;;;;;;5056029;28;20071;-58
2024/03/14 12:03:22;;;;;;;1.27;0.77;;;;;;;;;;5056127;28;20410;-58
2024/03/14 12:05:53;;;;;;;1.10;0.50;;;;;;;;;;5055720;28;20065;-58
2024/03/14 12:08:19;;;;;;;0.90;0.40;;;;;;;;;;5056001;28;20025;-58
2024/03/14 12:10:45;;;;;;;0.95;0.52;;;;;;;;;;5056516;28;20074;-58
2024/03/14 12:13:16;;;;;;;0.85;0.32;;;;;;;;;;5056141;28;20041;-58
2024/03/14 12:15:42;;;;;;;4.35;0.50;;;;;;;;;;5056387;28;20068;-58
2024/03/14 12:18:11;;;;;;;1.27;0.55;;;;;;;;;;5056048;28;20033;-58
2024/03/14 12:20:38;;;;;;;0.73;0.47;;;;;;;;;;5055901;28;20037;-59
2024/03/14 12:23:07;;;;;;;1.77;0.80;;;;;;;;;;5055690;28;20171;-58
2024/03/14 12:25:37;;;;;;;1.35;0.60;;;;;;;;;;5055483;28;20068;-58
2024/03/14 12:28:03;;;;;;;0.90;0.47;;;;;;;;;;5055991;28;20025;-58
2024/03/14 12:30:33;;;;;;;1.17;0.50;;;;;;;;;;5055701;28;20096;-58
2024/03/14 12:33:01;;;;;;;1.42;0.70;;;;;;;;;;5055193;28;20051;-59
2024/03/14 12:35:27;;;;;;;0.68;0.40;;;;;;;;;;5055452;28;20432;-57
2024/03/14 12:37:54;;;;;;;1.00;0.50;;;;;;;;;;5054947;28;20078;-57
2024/03/14 12:40:21;;;;;;;0.98;0.50;;;;;;;;;;5055335;28;20103;-58
2024/03/14 12:42:47;;;;;;;0.50;0.20;;;;;;;;;;5055552;28;20033;-58
2024/03/14 12:45:16;;;;;;;0.70;0.30;;;;;;;;;;5055084;28;20412;-58
2024/03/14 12:47:43;;;;;;;1.33;0.50;;;;;;;;;;5055209;28;20053;-58
2024/03/14 12:50:21;;;;;;;0.80;0.40;;;;;;;;;;5055856;28;20049;-58
2024/03/14 12:52:59;;;;;;;0.68;0.38;;;;;;;;;;5054781;28;20036;-59
2024/03/14 12:55:25;;;;;;;1.67;0.55;;;;;;;;;;5055191;28;20116;-58
2024/03/14 12:57:51;;;;;;;0.40;0.20;;;;;;;;;;5055591;28;20439;-59
2024/03/14 13:00:20;;;;;;;1.23;0.57;;;;;;;;;;5054476;28;20021;-58
2024/03/14 13:02:49;;;;;;;1.13;0.43;;;;;;;;;;5055178;28;20029;-59
2024/03/14 13:05:18;;;;;;;3.83;0.52;;;;;;;;;;5054364;28;20028;-59
2024/03/14 13:07:44;;;;;;;1.05;0.63;;;;;;;;;;5054672;28;20013;-59
2024/03/14 13:10:11;;;;;;;0.77;0.40;;;;;;;;;;5055175;28;20029;-59
2024/03/14 13:12:40;;;;;;;0.80;0.40;;;;;;;;;;5054462;28;20065;-58
2024/03/14 13:15:14;;;;;;;0.47;0.30;;;;;;;;;;5054417;28;20102;-58
2024/03/14 13:17:47;;;;;;;1.15;0.45;;;;;;;;;;5055541;28;20025;-59
2024/03/14 13:20:14;;;;;;;1.02;0.45;;;;;;;;;;5054590;28;20021;-58
2024/03/14 13:22:40;;;;;;;1.08;0.50;;;;;;;;;;5054336;28;20029;-58
2024/03/14 13:25:07;;;;;;;1.38;0.57;;;;;;;;;;5054856;28;20032;-58
2024/03/14 13:27:34;;;;;;;1.80;0.70;;;;;;;;;;5054596;28;20040;-59
2024/03/14 13:30:07;;;;;;;1.23;0.73;;;;;;;;;;5054261;28;20063;-58
2024/03/14 13:32:34;;;;;;;1.10;0.40;;;;;;;;;;5054563;28;20059;-58
2024/03/14 13:35:00;;;;;;;1.40;0.30;;;;;;;;;;5054864;28;20025;-59
2024/03/14 13:37:29;;;;;;;0.60;0.28;;;;;;;;;;5054935;28;20082;-59
2024/03/14 13:39:55;;;;;;;0.98;0.30;;;;;;;;;;5054484;28;20025;-58
2024/03/14 13:42:23;;;;;;;0.63;0.30;;;;;;;;;;5054042;28;20535;-58
2024/03/14 13:44:49;;;;;;;1.42;0.38;;;;;;;;;;5052811;28;20033;-58
2024/03/14 13:47:20;;;;;;;0.43;0.20;;;;;;;;;;5054492;28;20070;-58
2024/03/14 13:49:47;;;;;;;0.65;0.25;;;;;;;;;;5054433;28;20025;-59
2024/03/14 13:52:14;;;;;;;2.05;0.55;;;;;;;;;;5053810;28;20041;-58
2024/03/14 13:54:41;;;;;;;1.25;0.50;;;;;;;;;;5054102;28;20459;-59
2024/03/14 13:57:08;;;;;;;1.30;0.60;;;;;;;;;;5053756;28;20148;-58
2024/03/14 13:59:36;;;;;;;1.50;0.50;;;;;;;;;;5054156;28;20021;-58
2024/03/14 14:02:03;;;;;;;1.77;0.43;;;;;;;;;;5054209;28;20033;-57
2024/03/14 14:04:30;;;;;;;0.88;0.50;;;;;;;;;;5054437;28;20036;-57
2024/03/14 14:06:57;;;;;;;1.27;0.40;;;;;;;;;;5054235;28;20025;-57
2024/03/14 14:09:24;;;;;;;1.05;0.52;;;;;;;;;;5052975;28;20049;-58
2024/03/14 14:11:52;;;;;;;1.35;0.40;;;;;;;;;;5054288;28;20029;-57
2024/03/14 14:14:18;;;;;;;0.55;0.30;;;;;;;;;;5054183;28;20033;-57
2024/03/14 14:16:44;;;;;;;1.23;0.47;;;;;;;;;;5053573;28;20136;-58
2024/03/14 14:19:10;;;;;;;0.68;0.30;;;;;;;;;;5054447;28;20032;-58
2024/03/14 14:21:38;;;;;;;1.00;0.40;;;;;;;;;;5053647;28;20460;-59
2024/03/14 14:24:04;;;;;;;0.55;0.28;;;;;;;;;;5053394;28;20029;-58
2024/03/14 14:26:30;;;;;;;0.32;0.15;;;;;;;;;;5053656;28;20028;-58
2024/03/14 14:28:57;;;;;;;0.25;0.10;;;;;;;;;;5054171;28;20052;-57
2024/03/14 14:31:24;;;;;;;0.85;0.32;;;;;;;;;;5053585;28;20086;-58
2024/03/14 14:33:50;;;;;;;1.05;0.45;;;;;;;;;;5053395;28;20140;-58
2024/03/14 14:36:16;;;;;;;0.77;0.40;;;;;;;;;;5053975;28;20055;-58
2024/03/14 14:38:43;;;;;;;1.45;0.50;;;;;;;;;;5054255;28;20025;-58
2024/03/14 14:41:09;;;;;;;1.08;0.57;;;;;;;;;;5054204;28;20025;-58
2024/03/14 14:43:35;;;;;;;0.95;0.38;;;;;;;;;;5053057;28;20021;-57